sensor_id;sensor_type;location;lat;lon;timestamp;P1;durP1;ratioP1;P2;durP2;ratioP2
14373;SDS011;7270;49.004;12.066;2022-12-29T00:00:02;1.33;;;1.23;;
14373;SDS011;7270;49.004;12.066;2022-12-29T00:02:29;1.33;;;1.30;;
14373;SDS011;7270;49.004;12.066;2022-12-29T00:04:55;1.20;;;1.20;;
14373;SDS011;7270;49.004;12.066;2022-12-29T00:07:22;1.40;;;1.30;;
14373;SDS011;7270;49.004;12.066;2022-12-29T00:09:49;1.30;;;1.20;;
14373;SDS011;7270;49.004;12.066;2022-12-29T00:12:15;1.20;;;1.20;;
14373;SDS011;7270;49.004;12.066;2022-12-29T00:14:42;1.10;;;1.10;;
14373;SDS011;7270;49.004;12.066;2022-12-29T00:17:25;1.10;;;1.10;;
14373;SDS011;7270;49.004;12.066;2022-12-29T00:19:52;1.10;;;1.10;;
14373;SDS011;7270;49.004;12.066;2022-12-29T00:22:36;1.10;;;1.10;;
14373;SDS011;7270;49.004;12.066;2022-12-29T00:25:21;1.20;;;1.20;;
14373;SDS011;7270;49.004;12.066;2022-12-29T00:28:07;1.30;;;1.20;;
14373;SDS011;7270;49.004;12.066;2022-12-29T00:30:51;1.30;;;1.20;;
14373;SDS011;7270;49.004;12.066;2022-12-29T00:33:35;1.20;;;1.20;;
14373;SDS011;7270;49.004;12.066;2022-12-29T00:36:21;1.20;;;1.20;;
14373;SDS011;7270;49.004;12.066;2022-12-29T00:38:49;1.10;;;1.10;;
14373;SDS011;7270;49.004;12.066;2022-12-29T00:41:36;1.30;;;1.20;;
14373;SDS011;7270;49.004;12.066;2022-12-29T00:44:20;1.10;;;1.10;;
14373;SDS011;7270;49.004;12.066;2022-12-29T00:46:46;1.30;;;1.20;;
14373;SDS011;7270;49.004;12.066;2022-12-29T00:49:13;1.23;;;1.20;;
14373;SDS011;7270;49.004;12.066;2022-12-29T00:51:58;1.30;;;1.20;;
14373;SDS011;7270;49.004;12.066;2022-12-29T00:54:25;1.13;;;1.13;;
14373;SDS011;7270;49.004;12.066;2022-12-29T00:56:53;1.30;;;1.20;;
14373;SDS011;7270;49.004;12.066;2022-12-29T00:59:19;1.20;;;1.20;;
14373;SDS011;7270;49.004;12.066;2022-12-29T01:01:46;1.20;;;1.20;;
14373;SDS011;7270;49.004;12.066;2022-12-29T01:04:14;1.40;;;1.30;;
14373;SDS011;7270;49.004;12.066;2022-12-29T01:06:41;1.13;;;1.13;;
14373;SDS011;7270;49.004;12.066;2022-12-29T01:09:07;1.13;;;1.13;;
14373;SDS011;7270;49.004;12.066;2022-12-29T01:11:53;1.40;;;1.30;;
14373;SDS011;7270;49.004;12.066;2022-12-29T01:14:19;1.30;;;1.20;;
14373;SDS011;7270;49.004;12.066;2022-12-29T01:16:46;1.00;;;1.00;;
14373;SDS011;7270;49.004;12.066;2022-12-29T01:19:15;1.40;;;1.30;;
14373;SDS011;7270;49.004;12.066;2022-12-29T01:21:42;1.20;;;1.20;;
14373;SDS011;7270;49.004;12.066;2022-12-29T01:24:08;1.20;;;1.20;;
14373;SDS011;7270;49.004;12.066;2022-12-29T01:26:34;1.30;;;1.20;;
14373;SDS011;7270;49.004;12.066;2022-12-29T01:29:02;1.20;;;1.20;;
14373;SDS011;7270;49.004;12.066;2022-12-29T01:31:28;1.10;;;1.10;;
14373;SDS011;7270;49.004;12.066;2022-12-29T01:33:54;1.23;;;1.20;;
14373;SDS011;7270;49.004;12.066;2022-12-29T01:36:21;1.20;;;1.20;;
14373;SDS011;7270;49.004;12.066;2022-12-29T01:38:47;1.17;;;1.17;;
14373;SDS011;7270;49.004;12.066;2022-12-29T01:41:14;1.10;;;1.10;;
14373;SDS011;7270;49.004;12.066;2022-12-29T01:43:41;1.30;;;1.20;;
14373;SDS011;7270;49.004;12.066;2022-12-29T01:46:11;1.20;;;1.20;;
14373;SDS011;7270;49.004;12.066;2022-12-29T01:48:40;1.20;;;1.20;;
14373;SDS011;7270;49.004;12.066;2022-12-29T01:51:06;1.30;;;1.20;;
14373;SDS011;7270;49.004;12.066;2022-12-29T01:53:34;1.30;;;1.20;;
14373;SDS011;7270;49.004;12.066;2022-12-29T01:56:02;1.30;;;1.20;;
14373;SDS011;7270;49.004;12.066;2022-12-29T01:58:29;1.10;;;1.10;;
14373;SDS011;7270;49.004;12.066;2022-12-29T02:00:56;1.20;;;1.20;;
14373;SDS011;7270;49.004;12.066;2022-12-29T02:03:26;1.10;;;1.10;;
14373;SDS011;7270;49.004;12.066;2022-12-29T02:05:54;1.13;;;1.13;;
14373;SDS011;7270;49.004;12.066;2022-12-29T02:08:24;1.20;;;1.20;;
14373;SDS011;7270;49.004;12.066;2022-12-29T02:10:52;1.30;;;1.20;;
14373;SDS011;7270;49.004;12.066;2022-12-29T02:13:18;1.10;;;1.10;;
14373;SDS011;7270;49.004;12.066;2022-12-29T02:15:48;1.10;;;1.10;;
14373;SDS011;7270;49.004;12.066;2022-12-29T02:18:23;1.00;;;1.00;;
14373;SDS011;7270;49.004;12.066;2022-12-29T02:23:40;1.10;;;1.10;;
14373;SDS011;7270;49.004;12.066;2022-12-29T02:26:14;1.20;;;1.20;;
14373;SDS011;7270;49.004;12.066;2022-12-29T02:29:00;1.20;;;1.20;;
14373;SDS011;7270;49.004;12.066;2022-12-29T02:31:35;1.10;;;1.10;;
14373;SDS011;7270;49.004;12.066;2022-12-29T02:34:06;1.10;;;1.10;;
14373;SDS011;7270;49.004;12.066;2022-12-29T02:36:37;1.17;;;1.17;;
14373;SDS011;7270;49.004;12.066;2022-12-29T02:39:06;1.10;;;1.10;;
14373;SDS011;7270;49.004;12.066;2022-12-29T02:41:38;1.20;;;1.20;;
14373;SDS011;7270;49.004;12.066;2022-12-29T02:44:09;1.10;;;1.10;;
14373;SDS011;7270;49.004;12.066;2022-12-29T02:46:41;1.10;;;1.10;;
14373;SDS011;7270;49.004;12.066;2022-12-29T02:49:10;1.10;;;1.10;;
14373;SDS011;7270;49.004;12.066;2022-12-29T02:51:41;1.10;;;1.10;;
14373;SDS011;7270;49.004;12.066;2022-12-29T02:54:09;1.20;;;1.20;;
14373;SDS011;7270;49.004;12.066;2022-12-29T02:56:53;1.20;;;1.20;;
14373;SDS011;7270;49.004;12.066;2022-12-29T02:59:19;1.10;;;1.10;;
14373;SDS011;7270;49.004;12.066;2022-12-29T03:01:54;1.00;;;1.00;;
14373;SDS011;7270;49.004;12.066;2022-12-29T03:04:50;1.10;;;1.10;;
14373;SDS011;7270;49.004;12.066;2022-12-29T03:07:18;1.20;;;1.20;;
14373;SDS011;7270;49.004;12.066;2022-12-29T03:09:47;1.00;;;1.00;;
14373;SDS011;7270;49.004;12.066;2022-12-29T03:12:19;1.30;;;1.20;;
14373;SDS011;7270;49.004;12.066;2022-12-29T03:14:52;1.20;;;1.20;;
14373;SDS011;7270;49.004;12.066;2022-12-29T03:17:43;1.20;;;1.20;;
14373;SDS011;7270;49.004;12.066;2022-12-29T03:20:14;1.40;;;1.30;;
14373;SDS011;7270;49.004;12.066;2022-12-29T03:22:43;1.10;;;1.10;;
14373;SDS011;7270;49.004;12.066;2022-12-29T03:25:12;1.23;;;1.20;;
14373;SDS011;7270;49.004;12.066;2022-12-29T03:27:41;1.13;;;1.13;;
14373;SDS011;7270;49.004;12.066;2022-12-29T03:30:08;1.20;;;1.20;;
14373;SDS011;7270;49.004;12.066;2022-12-29T03:32:36;1.17;;;1.17;;
14373;SDS011;7270;49.004;12.066;2022-12-29T03:35:05;1.20;;;1.20;;
14373;SDS011;7270;49.004;12.066;2022-12-29T03:37:34;1.30;;;1.20;;
14373;SDS011;7270;49.004;12.066;2022-12-29T03:40:00;1.40;;;1.30;;
14373;SDS011;7270;49.004;12.066;2022-12-29T03:42:27;1.20;;;1.20;;
14373;SDS011;7270;49.004;12.066;2022-12-29T03:44:56;1.20;;;1.20;;
14373;SDS011;7270;49.004;12.066;2022-12-29T03:47:22;1.10;;;1.10;;
14373;SDS011;7270;49.004;12.066;2022-12-29T03:49:49;1.20;;;1.20;;
14373;SDS011;7270;49.004;12.066;2022-12-29T03:52:17;1.20;;;1.20;;
14373;SDS011;7270;49.004;12.066;2022-12-29T03:54:43;1.20;;;1.20;;
14373;SDS011;7270;49.004;12.066;2022-12-29T03:57:09;1.10;;;1.10;;
14373;SDS011;7270;49.004;12.066;2022-12-29T03:59:36;1.20;;;1.20;;
14373;SDS011;7270;49.004;12.066;2022-12-29T04:02:02;1.20;;;1.20;;
14373;SDS011;7270;49.004;12.066;2022-12-29T04:04:28;1.17;;;1.17;;
14373;SDS011;7270;49.004;12.066;2022-12-29T04:06:55;1.20;;;1.20;;
14373;SDS011;7270;49.004;12.066;2022-12-29T04:09:22;1.20;;;1.20;;
14373;SDS011;7270;49.004;12.066;2022-12-29T04:11:49;1.20;;;1.20;;
14373;SDS011;7270;49.004;12.066;2022-12-29T04:14:15;1.27;;;1.20;;
14373;SDS011;7270;49.004;12.066;2022-12-29T04:16:41;1.23;;;1.20;;
14373;SDS011;7270;49.004;12.066;2022-12-29T04:19:08;1.30;;;1.20;;
14373;SDS011;7270;49.004;12.066;2022-12-29T04:21:34;1.13;;;1.13;;
14373;SDS011;7270;49.004;12.066;2022-12-29T04:23:59;1.30;;;1.20;;
14373;SDS011;7270;49.004;12.066;2022-12-29T04:26:27;1.10;;;1.10;;
14373;SDS011;7270;49.004;12.066;2022-12-29T04:28:54;1.23;;;1.20;;
14373;SDS011;7270;49.004;12.066;2022-12-29T04:31:20;1.10;;;1.10;;
14373;SDS011;7270;49.004;12.066;2022-12-29T04:33:46;1.30;;;1.20;;
14373;SDS011;7270;49.004;12.066;2022-12-29T04:36:12;1.10;;;1.10;;
14373;SDS011;7270;49.004;12.066;2022-12-29T04:38:39;1.10;;;1.10;;
14373;SDS011;7270;49.004;12.066;2022-12-29T04:41:05;1.30;;;1.20;;
14373;SDS011;7270;49.004;12.066;2022-12-29T04:43:33;1.13;;;1.13;;
14373;SDS011;7270;49.004;12.066;2022-12-29T04:45:59;1.30;;;1.20;;
14373;SDS011;7270;49.004;12.066;2022-12-29T04:48:25;1.30;;;1.20;;
14373;SDS011;7270;49.004;12.066;2022-12-29T04:50:52;1.30;;;1.20;;
14373;SDS011;7270;49.004;12.066;2022-12-29T04:53:18;1.10;;;1.10;;
14373;SDS011;7270;49.004;12.066;2022-12-29T04:55:47;1.10;;;1.10;;
14373;SDS011;7270;49.004;12.066;2022-12-29T04:58:14;1.17;;;1.17;;
14373;SDS011;7270;49.004;12.066;2022-12-29T05:00:41;1.20;;;1.20;;
14373;SDS011;7270;49.004;12.066;2022-12-29T05:03:08;1.10;;;1.10;;
14373;SDS011;7270;49.004;12.066;2022-12-29T05:05:34;1.20;;;1.20;;
14373;SDS011;7270;49.004;12.066;2022-12-29T05:08:01;1.00;;;1.00;;
14373;SDS011;7270;49.004;12.066;2022-12-29T05:10:27;1.20;;;1.20;;
14373;SDS011;7270;49.004;12.066;2022-12-29T05:12:53;1.30;;;1.20;;
14373;SDS011;7270;49.004;12.066;2022-12-29T05:15:20;1.30;;;1.20;;
14373;SDS011;7270;49.004;12.066;2022-12-29T05:17:47;1.20;;;1.20;;
14373;SDS011;7270;49.004;12.066;2022-12-29T05:20:13;1.10;;;1.10;;
14373;SDS011;7270;49.004;12.066;2022-12-29T05:22:40;1.40;;;1.30;;
14373;SDS011;7270;49.004;12.066;2022-12-29T05:25:06;1.30;;;1.20;;
14373;SDS011;7270;49.004;12.066;2022-12-29T05:27:33;1.30;;;1.20;;
14373;SDS011;7270;49.004;12.066;2022-12-29T05:29:59;1.23;;;1.20;;
14373;SDS011;7270;49.004;12.066;2022-12-29T05:32:25;1.10;;;1.10;;
14373;SDS011;7270;49.004;12.066;2022-12-29T05:34:53;1.40;;;1.30;;
14373;SDS011;7270;49.004;12.066;2022-12-29T05:37:19;1.20;;;1.20;;
14373;SDS011;7270;49.004;12.066;2022-12-29T05:39:46;1.23;;;1.20;;
14373;SDS011;7270;49.004;12.066;2022-12-29T05:42:12;1.33;;;1.23;;
14373;SDS011;7270;49.004;12.066;2022-12-29T05:44:38;1.10;;;1.10;;
14373;SDS011;7270;49.004;12.066;2022-12-29T05:47:05;1.30;;;1.20;;
14373;SDS011;7270;49.004;12.066;2022-12-29T05:49:31;1.30;;;1.20;;
14373;SDS011;7270;49.004;12.066;2022-12-29T05:51:59;1.40;;;1.30;;
14373;SDS011;7270;49.004;12.066;2022-12-29T05:54:25;1.40;;;1.30;;
14373;SDS011;7270;49.004;12.066;2022-12-29T05:56:51;1.20;;;1.20;;
14373;SDS011;7270;49.004;12.066;2022-12-29T05:59:18;1.40;;;1.30;;
14373;SDS011;7270;49.004;12.066;2022-12-29T06:01:44;1.30;;;1.20;;
14373;SDS011;7270;49.004;12.066;2022-12-29T06:04:10;1.20;;;1.20;;
14373;SDS011;7270;49.004;12.066;2022-12-29T06:06:37;1.40;;;1.30;;
14373;SDS011;7270;49.004;12.066;2022-12-29T06:09:05;1.20;;;1.20;;
14373;SDS011;7270;49.004;12.066;2022-12-29T06:11:31;1.10;;;1.10;;
14373;SDS011;7270;49.004;12.066;2022-12-29T06:13:57;1.23;;;1.20;;
14373;SDS011;7270;49.004;12.066;2022-12-29T06:16:24;1.30;;;1.20;;
14373;SDS011;7270;49.004;12.066;2022-12-29T06:18:50;1.27;;;1.20;;
14373;SDS011;7270;49.004;12.066;2022-12-29T06:21:16;1.20;;;1.20;;
14373;SDS011;7270;49.004;12.066;2022-12-29T06:23:42;1.23;;;1.20;;
14373;SDS011;7270;49.004;12.066;2022-12-29T06:26:10;1.17;;;1.17;;
14373;SDS011;7270;49.004;12.066;2022-12-29T06:28:36;1.40;;;1.30;;
14373;SDS011;7270;49.004;12.066;2022-12-29T06:31:03;1.10;;;1.10;;
14373;SDS011;7270;49.004;12.066;2022-12-29T06:33:29;1.27;;;1.20;;
14373;SDS011;7270;49.004;12.066;2022-12-29T06:35:56;1.10;;;1.10;;
14373;SDS011;7270;49.004;12.066;2022-12-29T06:38:22;1.20;;;1.20;;
14373;SDS011;7270;49.004;12.066;2022-12-29T06:40:49;1.20;;;1.20;;
14373;SDS011;7270;49.004;12.066;2022-12-29T06:43:16;1.30;;;1.20;;
14373;SDS011;7270;49.004;12.066;2022-12-29T06:45:43;1.20;;;1.20;;
14373;SDS011;7270;49.004;12.066;2022-12-29T06:48:09;1.20;;;1.20;;
14373;SDS011;7270;49.004;12.066;2022-12-29T06:50:35;1.20;;;1.20;;
14373;SDS011;7270;49.004;12.066;2022-12-29T06:53:02;1.30;;;1.20;;
14373;SDS011;7270;49.004;12.066;2022-12-29T06:55:28;1.30;;;1.20;;
14373;SDS011;7270;49.004;12.066;2022-12-29T06:57:55;1.10;;;1.10;;
14373;SDS011;7270;49.004;12.066;2022-12-29T07:00:22;1.30;;;1.20;;
14373;SDS011;7270;49.004;12.066;2022-12-29T07:02:49;1.10;;;1.10;;
14373;SDS011;7270;49.004;12.066;2022-12-29T07:05:16;1.30;;;1.20;;
14373;SDS011;7270;49.004;12.066;2022-12-29T07:07:43;1.27;;;1.20;;
14373;SDS011;7270;49.004;12.066;2022-12-29T07:10:09;1.20;;;1.20;;
14373;SDS011;7270;49.004;12.066;2022-12-29T07:12:35;1.30;;;1.20;;
14373;SDS011;7270;49.004;12.066;2022-12-29T07:15:02;1.40;;;1.30;;
14373;SDS011;7270;49.004;12.066;2022-12-29T07:17:29;1.10;;;1.10;;
14373;SDS011;7270;49.004;12.066;2022-12-29T07:19:56;1.30;;;1.20;;
14373;SDS011;7270;49.004;12.066;2022-12-29T07:22:22;1.10;;;1.10;;
14373;SDS011;7270;49.004;12.066;2022-12-29T07:24:48;1.30;;;1.20;;
14373;SDS011;7270;49.004;12.066;2022-12-29T07:27:15;1.10;;;1.10;;
14373;SDS011;7270;49.004;12.066;2022-12-29T07:29:41;1.40;;;1.30;;
14373;SDS011;7270;49.004;12.066;2022-12-29T07:32:07;1.30;;;1.20;;
14373;SDS011;7270;49.004;12.066;2022-12-29T07:34:35;1.10;;;1.10;;
14373;SDS011;7270;49.004;12.066;2022-12-29T07:37:01;1.20;;;1.20;;
14373;SDS011;7270;49.004;12.066;2022-12-29T07:39:27;1.30;;;1.20;;
14373;SDS011;7270;49.004;12.066;2022-12-29T07:41:54;1.30;;;1.20;;
14373;SDS011;7270;49.004;12.066;2022-12-29T07:44:20;1.10;;;1.10;;
14373;SDS011;7270;49.004;12.066;2022-12-29T07:46:46;1.10;;;1.10;;
14373;SDS011;7270;49.004;12.066;2022-12-29T07:49:13;1.20;;;1.20;;
14373;SDS011;7270;49.004;12.066;2022-12-29T07:51:40;1.10;;;1.10;;
14373;SDS011;7270;49.004;12.066;2022-12-29T07:54:08;1.20;;;1.20;;
14373;SDS011;7270;49.004;12.066;2022-12-29T07:56:34;1.30;;;1.20;;
14373;SDS011;7270;49.004;12.066;2022-12-29T07:59:00;1.30;;;1.20;;
14373;SDS011;7270;49.004;12.066;2022-12-29T08:01:27;1.30;;;1.20;;
14373;SDS011;7270;49.004;12.066;2022-12-29T08:03:53;1.23;;;1.20;;
14373;SDS011;7270;49.004;12.066;2022-12-29T08:06:19;1.20;;;1.20;;
14373;SDS011;7270;49.004;12.066;2022-12-29T08:08:48;1.40;;;1.30;;
14373;SDS011;7270;49.004;12.066;2022-12-29T08:11:14;1.20;;;1.20;;
14373;SDS011;7270;49.004;12.066;2022-12-29T08:13:40;1.20;;;1.20;;
14373;SDS011;7270;49.004;12.066;2022-12-29T08:16:06;1.30;;;1.20;;
14373;SDS011;7270;49.004;12.066;2022-12-29T08:18:35;1.00;;;1.00;;
14373;SDS011;7270;49.004;12.066;2022-12-29T08:21:10;1.33;;;1.23;;
14373;SDS011;7270;49.004;12.066;2022-12-29T08:23:37;1.10;;;1.10;;
14373;SDS011;7270;49.004;12.066;2022-12-29T08:26:05;1.10;;;1.10;;
14373;SDS011;7270;49.004;12.066;2022-12-29T08:28:31;1.13;;;1.13;;
14373;SDS011;7270;49.004;12.066;2022-12-29T08:30:58;1.30;;;1.20;;
14373;SDS011;7270;49.004;12.066;2022-12-29T08:33:27;1.27;;;1.20;;
14373;SDS011;7270;49.004;12.066;2022-12-29T08:36:03;1.37;;;1.27;;
14373;SDS011;7270;49.004;12.066;2022-12-29T08:38:30;1.13;;;1.10;;
14373;SDS011;7270;49.004;12.066;2022-12-29T08:40:57;1.30;;;1.20;;
14373;SDS011;7270;49.004;12.066;2022-12-29T08:43:26;1.10;;;1.10;;
14373;SDS011;7270;49.004;12.066;2022-12-29T08:45:52;1.20;;;1.20;;
14373;SDS011;7270;49.004;12.066;2022-12-29T08:48:19;1.10;;;1.10;;
14373;SDS011;7270;49.004;12.066;2022-12-29T08:50:47;1.30;;;1.20;;
14373;SDS011;7270;49.004;12.066;2022-12-29T08:53:14;1.40;;;1.30;;
14373;SDS011;7270;49.004;12.066;2022-12-29T08:55:40;1.10;;;1.10;;
14373;SDS011;7270;49.004;12.066;2022-12-29T08:58:20;1.10;;;1.10;;
14373;SDS011;7270;49.004;12.066;2022-12-29T09:00:47;1.10;;;1.10;;
14373;SDS011;7270;49.004;12.066;2022-12-29T09:03:13;1.10;;;1.10;;
14373;SDS011;7270;49.004;12.066;2022-12-29T09:05:40;1.40;;;1.30;;
14373;SDS011;7270;49.004;12.066;2022-12-29T09:08:06;1.10;;;1.10;;
14373;SDS011;7270;49.004;12.066;2022-12-29T09:10:32;1.20;;;1.20;;
14373;SDS011;7270;49.004;12.066;2022-12-29T09:12:59;1.10;;;1.10;;
14373;SDS011;7270;49.004;12.066;2022-12-29T09:15:25;1.17;;;1.17;;
14373;SDS011;7270;49.004;12.066;2022-12-29T09:17:52;1.20;;;1.20;;
14373;SDS011;7270;49.004;12.066;2022-12-29T09:20:20;1.30;;;1.20;;
14373;SDS011;7270;49.004;12.066;2022-12-29T09:22:46;1.40;;;1.30;;
14373;SDS011;7270;49.004;12.066;2022-12-29T09:25:13;1.20;;;1.20;;
14373;SDS011;7270;49.004;12.066;2022-12-29T09:27:39;1.00;;;1.00;;
14373;SDS011;7270;49.004;12.066;2022-12-29T09:30:07;1.00;;;1.00;;
14373;SDS011;7270;49.004;12.066;2022-12-29T09:32:34;1.00;;;1.00;;
14373;SDS011;7270;49.004;12.066;2022-12-29T09:35:02;1.00;;;1.00;;
14373;SDS011;7270;49.004;12.066;2022-12-29T09:37:28;1.00;;;1.00;;
14373;SDS011;7270;49.004;12.066;2022-12-29T09:39:55;0.90;;;0.90;;
14373;SDS011;7270;49.004;12.066;2022-12-29T09:42:23;1.10;;;1.10;;
14373;SDS011;7270;49.004;12.066;2022-12-29T09:44:53;0.90;;;0.90;;
14373;SDS011;7270;49.004;12.066;2022-12-29T09:47:22;0.90;;;0.90;;
14373;SDS011;7270;49.004;12.066;2022-12-29T09:49:50;1.00;;;1.00;;
14373;SDS011;7270;49.004;12.066;2022-12-29T09:52:20;0.90;;;0.90;;
14373;SDS011;7270;49.004;12.066;2022-12-29T09:54:51;0.90;;;0.90;;
14373;SDS011;7270;49.004;12.066;2022-12-29T09:57:20;1.00;;;1.00;;
14373;SDS011;7270;49.004;12.066;2022-12-29T09:59:48;0.93;;;0.93;;
14373;SDS011;7270;49.004;12.066;2022-12-29T10:02:20;1.10;;;1.10;;
14373;SDS011;7270;49.004;12.066;2022-12-29T10:04:49;1.00;;;1.00;;
14373;SDS011;7270;49.004;12.066;2022-12-29T10:07:17;1.00;;;1.00;;
14373;SDS011;7270;49.004;12.066;2022-12-29T10:09:47;1.00;;;1.00;;
14373;SDS011;7270;49.004;12.066;2022-12-29T10:12:21;1.00;;;1.00;;
14373;SDS011;7270;49.004;12.066;2022-12-29T10:14:54;1.10;;;1.10;;
14373;SDS011;7270;49.004;12.066;2022-12-29T10:17:24;0.93;;;0.93;;
14373;SDS011;7270;49.004;12.066;2022-12-29T10:20:03;1.00;;;1.00;;
14373;SDS011;7270;49.004;12.066;2022-12-29T10:22:45;1.00;;;1.00;;
14373;SDS011;7270;49.004;12.066;2022-12-29T10:25:19;1.10;;;1.10;;
14373;SDS011;7270;49.004;12.066;2022-12-29T10:27:46;1.10;;;1.10;;
14373;SDS011;7270;49.004;12.066;2022-12-29T10:30:13;1.10;;;1.10;;
14373;SDS011;7270;49.004;12.066;2022-12-29T10:32:41;1.10;;;1.10;;
14373;SDS011;7270;49.004;12.066;2022-12-29T10:35:11;1.00;;;1.00;;
14373;SDS011;7270;49.004;12.066;2022-12-29T10:37:40;1.10;;;1.10;;
14373;SDS011;7270;49.004;12.066;2022-12-29T10:40:14;1.00;;;1.00;;
14373;SDS011;7270;49.004;12.066;2022-12-29T10:42:44;1.00;;;1.00;;
14373;SDS011;7270;49.004;12.066;2022-12-29T10:45:12;1.00;;;1.00;;
14373;SDS011;7270;49.004;12.066;2022-12-29T10:47:42;0.90;;;0.90;;
14373;SDS011;7270;49.004;12.066;2022-12-29T10:50:13;1.00;;;1.00;;
14373;SDS011;7270;49.004;12.066;2022-12-29T10:52:39;0.90;;;0.90;;
14373;SDS011;7270;49.004;12.066;2022-12-29T10:55:08;1.00;;;1.00;;
14373;SDS011;7270;49.004;12.066;2022-12-29T10:57:40;0.90;;;0.90;;
14373;SDS011;7270;49.004;12.066;2022-12-29T11:00:12;1.00;;;1.00;;
14373;SDS011;7270;49.004;12.066;2022-12-29T11:02:53;1.00;;;1.00;;
14373;SDS011;7270;49.004;12.066;2022-12-29T11:05:25;1.10;;;1.10;;
14373;SDS011;7270;49.004;12.066;2022-12-29T11:07:56;1.00;;;1.00;;
14373;SDS011;7270;49.004;12.066;2022-12-29T11:10:29;1.00;;;1.00;;
14373;SDS011;7270;49.004;12.066;2022-12-29T11:12:57;1.00;;;1.00;;
14373;SDS011;7270;49.004;12.066;2022-12-29T11:15:25;0.90;;;0.90;;
14373;SDS011;7270;49.004;12.066;2022-12-29T11:17:52;0.90;;;0.90;;
14373;SDS011;7270;49.004;12.066;2022-12-29T11:20:24;1.00;;;1.00;;
14373;SDS011;7270;49.004;12.066;2022-12-29T11:22:52;1.00;;;1.00;;
14373;SDS011;7270;49.004;12.066;2022-12-29T11:25:19;1.00;;;1.00;;
14373;SDS011;7270;49.004;12.066;2022-12-29T11:27:51;1.00;;;1.00;;
14373;SDS011;7270;49.004;12.066;2022-12-29T11:30:22;1.00;;;1.00;;
14373;SDS011;7270;49.004;12.066;2022-12-29T11:32:51;0.80;;;0.80;;
14373;SDS011;7270;49.004;12.066;2022-12-29T11:35:29;1.00;;;1.00;;
14373;SDS011;7270;49.004;12.066;2022-12-29T11:37:55;1.00;;;1.00;;
14373;SDS011;7270;49.004;12.066;2022-12-29T11:40:22;1.00;;;1.00;;
14373;SDS011;7270;49.004;12.066;2022-12-29T11:42:48;1.00;;;1.00;;
14373;SDS011;7270;49.004;12.066;2022-12-29T11:45:17;1.00;;;1.00;;
14373;SDS011;7270;49.004;12.066;2022-12-29T11:47:45;0.90;;;0.90;;
14373;SDS011;7270;49.004;12.066;2022-12-29T11:50:17;1.00;;;1.00;;
14373;SDS011;7270;49.004;12.066;2022-12-29T11:52:44;0.90;;;0.90;;
14373;SDS011;7270;49.004;12.066;2022-12-29T11:55:16;1.00;;;1.00;;
14373;SDS011;7270;49.004;12.066;2022-12-29T11:57:43;1.00;;;1.00;;
14373;SDS011;7270;49.004;12.066;2022-12-29T12:00:14;0.90;;;0.90;;
14373;SDS011;7270;49.004;12.066;2022-12-29T12:02:42;1.00;;;1.00;;
14373;SDS011;7270;49.004;12.066;2022-12-29T12:05:21;1.00;;;1.00;;
14373;SDS011;7270;49.004;12.066;2022-12-29T12:07:49;1.10;;;1.10;;
14373;SDS011;7270;49.004;12.066;2022-12-29T12:10:19;1.00;;;1.00;;
14373;SDS011;7270;49.004;12.066;2022-12-29T12:12:48;0.90;;;0.90;;
14373;SDS011;7270;49.004;12.066;2022-12-29T12:15:17;0.90;;;0.90;;
14373;SDS011;7270;49.004;12.066;2022-12-29T12:17:47;0.90;;;0.90;;
14373;SDS011;7270;49.004;12.066;2022-12-29T12:20:16;1.10;;;1.10;;
14373;SDS011;7270;49.004;12.066;2022-12-29T12:22:46;0.90;;;0.90;;
14373;SDS011;7270;49.004;12.066;2022-12-29T12:25:15;0.90;;;0.90;;
14373;SDS011;7270;49.004;12.066;2022-12-29T12:27:45;1.00;;;1.00;;
14373;SDS011;7270;49.004;12.066;2022-12-29T12:30:14;1.00;;;1.00;;
14373;SDS011;7270;49.004;12.066;2022-12-29T12:32:43;0.90;;;0.90;;
14373;SDS011;7270;49.004;12.066;2022-12-29T12:35:11;0.90;;;0.90;;
14373;SDS011;7270;49.004;12.066;2022-12-29T12:37:42;1.00;;;1.00;;
14373;SDS011;7270;49.004;12.066;2022-12-29T12:40:18;1.00;;;1.00;;
14373;SDS011;7270;49.004;12.066;2022-12-29T12:42:49;0.90;;;0.90;;
14373;SDS011;7270;49.004;12.066;2022-12-29T12:45:34;1.00;;;1.00;;
14373;SDS011;7270;49.004;12.066;2022-12-29T12:48:04;0.90;;;0.90;;
14373;SDS011;7270;49.004;12.066;2022-12-29T12:50:39;1.00;;;1.00;;
14373;SDS011;7270;49.004;12.066;2022-12-29T12:53:19;0.90;;;0.90;;
14373;SDS011;7270;49.004;12.066;2022-12-29T12:55:56;0.90;;;0.90;;
14373;SDS011;7270;49.004;12.066;2022-12-29T12:58:26;0.97;;;0.97;;
14373;SDS011;7270;49.004;12.066;2022-12-29T13:01:00;1.00;;;1.00;;
14373;SDS011;7270;49.004;12.066;2022-12-29T13:03:31;0.90;;;0.90;;
14373;SDS011;7270;49.004;12.066;2022-12-29T13:06:06;0.90;;;0.90;;
14373;SDS011;7270;49.004;12.066;2022-12-29T13:08:58;0.90;;;0.90;;
14373;SDS011;7270;49.004;12.066;2022-12-29T13:11:33;1.00;;;1.00;;
14373;SDS011;7270;49.004;12.066;2022-12-29T13:14:08;0.90;;;0.90;;
14373;SDS011;7270;49.004;12.066;2022-12-29T13:16:40;1.00;;;1.00;;
14373;SDS011;7270;49.004;12.066;2022-12-29T13:19:08;0.90;;;0.90;;
14373;SDS011;7270;49.004;12.066;2022-12-29T13:21:43;1.00;;;1.00;;
14373;SDS011;7270;49.004;12.066;2022-12-29T13:24:13;1.00;;;1.00;;
14373;SDS011;7270;49.004;12.066;2022-12-29T13:26:43;0.90;;;0.90;;
14373;SDS011;7270;49.004;12.066;2022-12-29T13:29:14;0.90;;;0.90;;
14373;SDS011;7270;49.004;12.066;2022-12-29T13:31:43;1.00;;;1.00;;
14373;SDS011;7270;49.004;12.066;2022-12-29T13:34:15;1.00;;;1.00;;
14373;SDS011;7270;49.004;12.066;2022-12-29T13:36:44;0.90;;;0.90;;
14373;SDS011;7270;49.004;12.066;2022-12-29T13:39:13;1.00;;;1.00;;
14373;SDS011;7270;49.004;12.066;2022-12-29T13:41:44;1.10;;;1.10;;
14373;SDS011;7270;49.004;12.066;2022-12-29T13:44:14;1.00;;;1.00;;
14373;SDS011;7270;49.004;12.066;2022-12-29T13:46:42;1.00;;;1.00;;
14373;SDS011;7270;49.004;12.066;2022-12-29T13:49:11;0.90;;;0.90;;
14373;SDS011;7270;49.004;12.066;2022-12-29T13:51:40;0.90;;;0.90;;
14373;SDS011;7270;49.004;12.066;2022-12-29T13:54:11;0.90;;;0.90;;
14373;SDS011;7270;49.004;12.066;2022-12-29T13:56:41;0.90;;;0.90;;
14373;SDS011;7270;49.004;12.066;2022-12-29T13:59:14;1.00;;;1.00;;
14373;SDS011;7270;49.004;12.066;2022-12-29T14:01:46;1.00;;;1.00;;
14373;SDS011;7270;49.004;12.066;2022-12-29T14:04:16;1.00;;;1.00;;
14373;SDS011;7270;49.004;12.066;2022-12-29T14:06:46;1.00;;;1.00;;
14373;SDS011;7270;49.004;12.066;2022-12-29T14:09:31;0.97;;;0.97;;
14373;SDS011;7270;49.004;12.066;2022-12-29T14:11:59;0.90;;;0.90;;
14373;SDS011;7270;49.004;12.066;2022-12-29T14:14:28;0.90;;;0.90;;
14373;SDS011;7270;49.004;12.066;2022-12-29T14:16:57;0.90;;;0.90;;
14373;SDS011;7270;49.004;12.066;2022-12-29T14:19:34;1.00;;;1.00;;
14373;SDS011;7270;49.004;12.066;2022-12-29T14:22:03;0.90;;;0.90;;
14373;SDS011;7270;49.004;12.066;2022-12-29T14:24:41;1.00;;;1.00;;
14373;SDS011;7270;49.004;12.066;2022-12-29T14:29:50;1.00;;;1.00;;
14373;SDS011;7270;49.004;12.066;2022-12-29T14:32:36;1.00;;;1.00;;
14373;SDS011;7270;49.004;12.066;2022-12-29T14:37:44;1.00;;;1.00;;
14373;SDS011;7270;49.004;12.066;2022-12-29T14:40:14;1.03;;;1.03;;
14373;SDS011;7270;49.004;12.066;2022-12-29T14:42:43;1.00;;;1.00;;
14373;SDS011;7270;49.004;12.066;2022-12-29T14:45:23;1.00;;;1.00;;
14373;SDS011;7270;49.004;12.066;2022-12-29T14:47:51;1.00;;;1.00;;
14373;SDS011;7270;49.004;12.066;2022-12-29T14:50:21;0.90;;;0.90;;
14373;SDS011;7270;49.004;12.066;2022-12-29T14:52:48;1.00;;;1.00;;
14373;SDS011;7270;49.004;12.066;2022-12-29T14:55:30;1.00;;;1.00;;
14373;SDS011;7270;49.004;12.066;2022-12-29T14:57:58;1.00;;;1.00;;
14373;SDS011;7270;49.004;12.066;2022-12-29T15:00:29;1.00;;;1.00;;
14373;SDS011;7270;49.004;12.066;2022-12-29T15:03:01;1.00;;;1.00;;
14373;SDS011;7270;49.004;12.066;2022-12-29T15:05:30;1.00;;;1.00;;
14373;SDS011;7270;49.004;12.066;2022-12-29T15:07:58;0.90;;;0.90;;